createdAt,value
2019-05-10T08:36:47.785Z,23.9345
2019-05-10T08:36:56.411Z,23.8785
2019-05-10T08:37:04.839Z,23.8518
2019-05-10T08:37:19.415Z,23.8224
2019-05-10T08:37:36.162Z,23.7663
2019-05-10T08:37:43.255Z,23.7396
2019-05-10T08:37:53.023Z,23.7396
2019-05-10T08:38:02.308Z,23.7102
2019-05-10T08:38:13.089Z,23.6942
2019-05-10T08:38:21.994Z,23.6648
2019-05-10T08:38:31.929Z,23.6809
2019-05-10T08:38:47.174Z,23.6809
2019-05-10T08:39:05.022Z,23.6381
2019-05-10T08:39:10.803Z,23.6248
2019-05-10T08:39:22.210Z,23.6248
2019-05-10T08:39:34.838Z,23.6088
2019-05-10T08:39:49.026Z,23.6381
2019-05-10T08:39:59.610Z,23.5954
2019-05-10T08:40:08.028Z,23.6248
2019-05-10T08:40:19.799Z,23.6381
2019-05-10T08:40:36.835Z,23.6381
2019-05-10T08:40:45.247Z,23.6088
2019-05-10T08:40:53.670Z,23.6088
2019-05-10T08:41:02.760Z,23.5821
2019-05-10T08:41:18.327Z,23.5954
2019-05-10T08:41:26.944Z,23.5687
2019-05-10T08:41:35.370Z,23.5821
2019-05-10T08:41:45.879Z,23.5821
2019-05-10T08:42:03.935Z,23.5821
2019-05-10T08:42:32.150Z,23.5554
2019-05-10T08:42:40.101Z,23.5554
2019-05-10T08:42:45.474Z,23.5821
2019-05-10T08:43:02.853Z,23.5554
2019-05-10T08:43:08.954Z,23.5260
2019-05-10T08:43:19.504Z,23.5260
2019-05-10T08:43:30.823Z,23.5554
2019-05-10T08:43:43.036Z,23.5393
2019-05-10T08:43:52.508Z,23.5393
2019-05-10T08:44:04.603Z,23.5687
2019-05-10T08:44:19.324Z,23.5821
2019-05-10T08:44:27.787Z,23.5393
2019-05-10T08:44:36.205Z,23.5687
2019-05-10T08:44:44.621Z,23.5554
2019-05-10T08:45:03.237Z,23.5554
2019-05-10T08:45:08.933Z,23.5687
2019-05-10T08:45:17.567Z,23.5554
2019-05-10T08:45:25.989Z,23.5687
2019-05-10T08:45:38.982Z,23.5687
2019-05-10T08:46:11.787Z,23.5821
2019-05-10T08:46:28.688Z,23.6248
2019-05-10T08:46:40.929Z,23.6248
2019-05-10T08:46:49.354Z,23.6381
2019-05-10T08:46:57.850Z,23.6088
2019-05-10T08:47:07.741Z,23.6381
2019-05-10T08:47:26.740Z,23.6248
2019-05-10T08:47:35.197Z,23.5954
2019-05-10T08:47:43.648Z,23.5821
2019-05-10T08:48:00.486Z,23.6248
2019-05-10T08:48:07.175Z,23.6248
2019-05-10T08:48:15.774Z,23.6381
2019-05-10T08:48:27.155Z,23.6088
2019-05-10T08:48:41.432Z,23.6088
2019-05-10T08:48:53.616Z,23.6648
2019-05-10T08:49:02.401Z,23.6648
2019-05-10T08:59:14.572Z,23.6248
2019-05-10T08:59:26.584Z,23.5554
2019-05-10T08:59:35.307Z,23.5687
2019-05-10T08:59:43.792Z,23.5821
2019-05-10T09:06:23.265Z,23.5954
2019-05-10T09:06:32.782Z,23.6088
2019-05-10T09:06:42.054Z,23.5954
2019-05-10T09:06:56.004Z,23.5554
2019-05-10T09:07:05.061Z,23.5821
2019-05-10T09:07:13.537Z,23.5687
2019-05-10T09:07:23.268Z,23.5687
2019-05-10T09:07:34.917Z,23.5687
2019-05-10T09:07:46.299Z,23.5821
2019-05-10T09:07:54.784Z,23.5821
2019-05-10T09:08:05.766Z,23.6088
2019-05-10T09:08:19.997Z,23.5821
2019-05-10T09:34:32.357Z,23.6648
2019-05-10T09:34:42.583Z,23.6648
2019-05-10T09:34:54.034Z,23.6515
2019-05-10T09:35:07.876Z,23.6515
2019-05-10T09:35:17.155Z,23.6809
2019-05-10T09:35:25.564Z,23.6809
2019-05-10T09:35:38.863Z,23.6809
2019-05-10T09:35:54.190Z,23.6515
2019-05-10T09:36:03.047Z,23.6381
2019-05-10T09:36:12.473Z,23.6515
2019-05-10T09:36:23.190Z,23.6515
2019-05-10T09:36:36.380Z,23.6381
2019-05-10T09:36:47.007Z,23.6381
2019-05-10T09:36:55.658Z,23.6515
2019-05-10T09:37:08.106Z,23.6381
2019-05-10T09:37:18.430Z,23.6515
2019-05-10T09:37:26.836Z,23.6381
2019-05-10T09:37:35.267Z,23.6515
2019-05-10T09:37:47.594Z,23.6515
2019-05-10T09:37:58.648Z,23.6248
2019-05-10T09:38:07.203Z,23.6648
2019-05-10T09:38:15.647Z,23.6515
2019-05-10T09:38:28.620Z,23.6648
2019-05-10T09:38:40.375Z,23.6648
2019-05-10T09:38:52.659Z,23.6515
2019-05-10T09:39:03.373Z,23.6942
2019-05-10T09:39:17.558Z,23.6648
2019-05-10T09:39:26.305Z,23.6942
2019-05-10T09:39:34.793Z,23.6942
2019-05-10T09:39:43.268Z,23.6942
2019-05-10T09:39:55.488Z,23.7102
2019-05-10T09:40:10.013Z,23.7236
2019-05-10T09:40:21.992Z,23.7396
2019-05-10T09:40:32.747Z,23.7236
2019-05-10T09:41:42.172Z,23.7396
2019-05-10T09:41:53.098Z,23.7102
2019-05-10T09:42:07.874Z,23.7102
2019-05-10T09:42:25.172Z,23.7102
2019-05-10T09:42:37.681Z,23.7102
2019-05-10T09:42:45.488Z,23.6809
2019-05-10T09:42:54.094Z,23.6809
2019-05-10T09:43:07.430Z,23.6648
2019-05-10T09:43:17.282Z,23.6809
2019-05-10T09:43:25.926Z,23.6809
2019-05-10T09:43:34.554Z,23.6648
2019-05-10T09:43:48.759Z,23.7102
2019-05-10T09:43:57.810Z,23.6942
2019-05-10T09:44:06.422Z,23.6942
2019-05-10T09:44:15.031Z,23.6942
2019-05-10T09:44:23.656Z,23.6515
2019-05-10T09:44:33.003Z,23.6381
2019-05-10T09:44:45.614Z,23.6648
2019-05-10T09:44:54.520Z,23.6809
2019-05-10T09:45:03.224Z,23.6942
2019-05-10T09:45:12.834Z,23.6942
2019-05-10T09:45:24.138Z,23.6942
2019-05-10T09:45:32.921Z,23.6942
2019-05-10T09:45:42.387Z,23.6942
2019-05-10T09:45:53.052Z,23.6942
2019-05-10T09:46:02.775Z,23.6942
2019-05-10T09:46:14.032Z,23.6942
2019-05-10T09:46:23.026Z,23.6648
2019-05-10T09:46:32.461Z,23.6809
2019-05-10T09:46:42.196Z,23.6515
2019-05-10T09:46:52.494Z,23.6648
2019-05-10T09:47:03.644Z,23.6515
2019-05-10T09:47:12.563Z,23.7102
2019-05-10T09:47:22.188Z,23.6942
2019-05-10T09:47:33.013Z,23.7102
2019-05-10T09:47:43.389Z,23.7396
2019-05-10T09:47:53.013Z,23.7236
2019-05-10T09:48:02.578Z,23.7530
2019-05-10T09:48:12.100Z,23.7396
2019-05-10T09:48:22.863Z,23.7236
2019-05-10T09:48:33.309Z,23.7102
2019-05-10T09:48:44.674Z,23.7236
2019-05-10T09:48:54.498Z,23.7102
2019-05-10T09:49:15.676Z,23.7396
2019-05-10T09:49:23.351Z,23.7797
2019-05-10T09:49:33.195Z,23.7957
2019-05-10T09:49:46.801Z,23.8090
2019-05-10T09:50:16.807Z,23.8090
2019-05-10T09:50:30.417Z,23.7797
2019-05-10T09:50:47.173Z,23.8090
2019-05-10T09:50:57.222Z,23.7957
2019-05-10T09:51:08.801Z,23.7957
2019-05-10T09:51:25.605Z,23.7797
2019-05-10T10:37:31.347Z,10.4707
2019-05-10T10:37:39.919Z,10.4013
2019-05-10T10:37:48.385Z,10.4013
2019-05-10T10:38:02.666Z,10.3746
2019-05-10T10:38:12.137Z,10.4147
2019-05-10T10:38:20.649Z,10.4440
2019-05-10T10:38:31.270Z,10.4147
2019-05-10T10:38:45.179Z,10.4013
2019-05-10T10:38:54.393Z,10.3319
2019-05-10T10:39:02.900Z,10.3452
2019-05-10T10:39:11.360Z,10.3586
2019-05-10T10:39:22.834Z,10.3586
2019-05-10T10:39:31.666Z,10.3452
2019-05-10T10:39:40.713Z,10.3746
2019-05-10T10:39:49.178Z,10.3586
2019-05-10T10:40:03.043Z,10.3586
2019-05-10T10:40:15.120Z,10.1102
2019-05-10T10:40:27.879Z,10.1236
2019-05-10T10:40:44.120Z,10.1102
2019-05-10T10:40:51.017Z,10.1396
2019-05-10T10:40:59.536Z,10.0969
2019-05-10T10:41:08.355Z,10.0969
2019-05-10T10:41:25.659Z,10.0969
2019-05-10T10:41:31.972Z,10.1396
2019-05-10T10:41:40.508Z,10.3452
2019-05-10T10:41:51.624Z,10.3586
2019-05-10T10:42:02.414Z,10.3452
2019-05-10T10:42:14.910Z,10.3586
2019-05-10T10:42:23.303Z,10.3452
2019-05-10T10:42:31.723Z,10.1396
2019-05-10T10:42:40.119Z,10.0969
2019-05-10T10:42:48.516Z,10.1396
2019-05-10T10:42:57.803Z,10.1396
2019-05-10T10:43:07.502Z,10.6844
2019-05-10T10:43:20.713Z,11.3146
2019-05-10T10:43:29.141Z,11.7098
2019-05-10T10:43:37.548Z,12.0996
2019-05-10T10:43:48.250Z,12.4388
2019-05-10T10:43:58.343Z,12.8313
2019-05-10T10:50:51.212Z,19.3523
2019-05-10T10:50:59.165Z,19.3389
2019-05-10T10:51:08.141Z,19.3790
2019-05-10T10:51:18.187Z,19.3229
2019-05-10T10:51:31.906Z,19.3389
2019-05-10T10:51:41.195Z,19.3229
2019-05-10T10:51:49.757Z,19.2268
2019-05-10T10:51:58.221Z,19.2962
2019-05-10T10:52:11.114Z,19.2401
2019-05-10T10:52:21.094Z,19.3095
2019-05-10T10:52:29.599Z,19.3523
2019-05-10T10:52:38.052Z,19.3523
2019-05-10T10:52:46.493Z,19.3523
2019-05-10T10:52:57.353Z,19.3229
2019-05-10T10:53:07.965Z,19.2828
2019-05-10T10:53:17.911Z,19.2401
2019-05-10T10:53:28.271Z,19.1974
2019-05-10T10:53:36.865Z,19.2107
2019-05-10T10:54:11.941Z,18.6900
2019-05-10T10:54:22.522Z,18.6900
2019-05-10T10:54:37.433Z,18.6339
2019-05-10T10:54:48.190Z,18.6500
2019-05-10T10:54:57.668Z,18.5512
2019-05-10T10:55:11.085Z,18.6633
2019-05-10T10:55:20.755Z,18.6633
2019-05-10T10:55:30.498Z,18.7194
2019-05-10T10:55:48.379Z,18.7327
2019-05-10T10:56:03.539Z,18.6900
2019-05-10T10:56:12.397Z,18.7461
2019-05-10T10:56:20.949Z,18.7621
2019-05-10T10:56:29.436Z,18.8022
2019-05-10T10:56:37.916Z,18.7755
2019-05-10T10:56:48.273Z,18.8022
2019-05-10T10:56:59.337Z,18.6900
2019-05-10T10:57:08.173Z,18.5512
2019-05-10T10:57:18.006Z,18.6206
2019-05-10T10:57:27.932Z,18.5939
2019-05-10T10:57:37.377Z,18.5645
2019-05-10T10:57:48.112Z,18.5512
2019-05-10T10:57:57.752Z,18.6900
2019-05-10T10:58:07.328Z,18.7621
2019-05-10T10:58:18.579Z,18.6500
2019-05-10T10:58:27.679Z,18.6767
2019-05-10T10:58:36.180Z,18.7060
2019-05-10T10:58:44.631Z,18.6767
2019-05-10T10:58:53.131Z,18.7621
2019-05-10T10:59:01.540Z,18.7461
2019-05-10T10:59:09.958Z,18.7755
2019-05-10T10:59:18.427Z,18.8182
2019-05-10T10:59:26.860Z,18.8582
2019-05-10T10:59:37.376Z,18.9010
2019-05-10T10:59:47.506Z,18.9704
2019-05-10T10:59:57.473Z,18.9998
2019-05-10T11:00:07.656Z,19.0959
2019-05-10T11:00:20.388Z,19.1119
2019-05-10T11:00:30.574Z,19.1520
2019-05-10T11:00:39.363Z,19.1520
2019-05-10T11:00:48.205Z,19.1840
2019-05-10T11:00:56.760Z,19.1840
2019-05-10T11:01:10.657Z,19.2268
2019-05-10T11:01:25.139Z,19.2401
2019-05-10T11:01:49.036Z,19.2401
2019-05-10T11:01:56.568Z,19.2401
2019-05-10T11:02:28.884Z,19.3095
2019-05-10T11:02:31.374Z,19.3095
2019-05-10T11:02:33.605Z,19.3095
2019-05-10T11:02:46.821Z,19.3095
2019-05-10T11:02:56.702Z,19.3095
2019-05-10T11:03:05.001Z,19.3095
2019-05-10T11:03:13.301Z,19.3095
2019-05-10T11:03:24.018Z,19.3095
2019-05-10T11:03:35.877Z,19.3095
2019-05-10T11:03:44.174Z,19.3095
2019-05-10T11:03:52.523Z,19.3095
2019-05-10T11:04:03.576Z,19.3095
2019-05-10T11:04:16.399Z,19.3095
2019-05-10T11:04:24.843Z,19.3095
2019-05-10T11:04:33.145Z,19.3095
